Cross Junction, VA

2:08 AM EDT on September 04, 2015 (GMT -0400)
Walnut Springs | | Change Station
CLOSE
Current Station
Personal Weather Station
Location: Gore, VA
Elevation: 906 ft
Nearby Weather Stations

Elev 906 ft 39.27 °N, 78.30 °W | Updated 14 seconds ago

Partly Cloudy
Partly Cloudy
73.4 °F
Feels Like 72 °F
N
2.0
Wind Variable Wind from WNW
Gusts 4.0 mph

Today
High -- | Low -- °F
--% Chance of Precip.
Yesterday
High -- | Low -- °F
Precip. -- in
6:44 AM 7:39 PM
Waning Gibbous, 63% visible
Pressure 29.94 in
Visibility 5.0 miles
Clouds Clear
Heat Index 72 °F
Dew Point 70 °F
Humidity 89%
Rainfall 0.00 in
Snow Depth Not available.
UV 0 out of 12
Pollen 9.80 out of 12
Air Quality Not available.
Flu Activity Not available.
METAR KMRB 040553Z AUTO 00000KT 5SM BR CLR 19/19 A2995 RMK AO2 SLP137 T01940189 10283 20194 52007 TSNO
Pressure 29.94 in
Visibility 5.0 miles
Clouds Clear
Heat Index 72 °F
Dew Point 70 °F
Humidity 89%
Rainfall 0.00 in
Snow Depth Not available.
UV 0 out of 12
Pollen 9.80 out of 12
Air Quality Not available.
Flu Activity Not available.
METAR KMRB 040553Z AUTO 00000KT 5SM BR CLR 19/19 A2995 RMK AO2 SLP137 T01940189 10283 20194 52007 TSNO

10-Day Weather Forecast

×

Almanac

Astronomy

Sep. 04, 2015 Rise Set
Actual Time
Civil Twilight
Nautical Twilight
Astronomical Twilight
Moon
Length of Visible Light
Length of Day
Tomorrow will be .
, % of the Moon is Illuminated

Today's Extremes

State Highs State Lows

Community

WunderPhotos

Upload Photos

1,852,132 photos uploaded!

WunderBlogs® & News

Nearby

Air Quality

  Air Quality AQ Index Pollutant
Not available.

Snow Depth

Station Depth Elevation

Earthquake Activity

City Distance Mag. Time & Date
Minimum magnitude displayed is 2.5.

Coastal Water Temperatures

Place Temperature

Stations

Nearby Weather Stations

Station Location Temp. Windchill Dew Point Humidity Wind Precip. Elev Updated Type